createdAt,value
2018-11-07T00:00:56.567Z,8.89
2018-11-07T00:03:25.305Z,8.98
2018-11-07T00:05:54.030Z,8.95
2018-11-07T00:08:23.000Z,8.81
2018-11-07T00:10:51.931Z,8.63
2018-11-07T00:13:21.032Z,8.69
2018-11-07T00:15:49.923Z,8.87
2018-11-07T00:18:18.805Z,8.46
2018-11-07T00:20:47.562Z,8.60
2018-11-07T00:23:16.229Z,8.78
2018-11-07T00:25:45.490Z,9.16
2018-11-07T00:28:14.415Z,9.18
2018-11-07T00:30:43.320Z,9.26
2018-11-07T00:33:11.966Z,9.22
2018-11-07T00:35:40.710Z,8.98
2018-11-07T00:38:09.447Z,8.47
2018-11-07T00:40:38.824Z,8.49
2018-11-07T00:43:07.568Z,8.66
2018-11-07T00:45:36.214Z,8.77
2018-11-07T00:48:04.917Z,8.73
2018-11-07T00:50:34.057Z,8.59
2018-11-07T00:53:02.850Z,8.26
2018-11-07T00:55:31.662Z,8.25
2018-11-07T00:58:00.523Z,8.14
2018-11-07T01:00:29.221Z,8.05
2018-11-07T01:02:58.423Z,8.04
2018-11-07T01:05:27.182Z,8.30
2018-11-07T01:07:55.851Z,8.24
2018-11-07T01:10:24.698Z,7.92
2018-11-07T01:12:53.784Z,7.82
2018-11-07T01:15:22.543Z,7.83
2018-11-07T01:17:51.329Z,7.98
2018-11-07T01:20:20.282Z,7.97
2018-11-07T01:22:48.840Z,7.88
2018-11-07T01:25:17.508Z,7.87
2018-11-07T01:27:46.193Z,7.82
2018-11-07T01:30:15.263Z,7.70
2018-11-07T01:32:43.874Z,7.80
2018-11-07T01:35:13.178Z,7.81
2018-11-07T01:37:42.058Z,8.00
2018-11-07T01:40:12.919Z,7.98
2018-11-07T01:42:41.955Z,7.96
2018-11-07T01:45:11.537Z,7.97
2018-11-07T01:47:40.401Z,7.98
2018-11-07T01:50:11.142Z,8.22
2018-11-07T01:52:40.065Z,8.10
2018-11-07T01:55:09.323Z,7.92
2018-11-07T01:57:38.419Z,8.01
2018-11-07T02:00:09.682Z,8.07
2018-11-07T02:02:39.675Z,8.03
2018-11-07T02:05:09.043Z,7.92
2018-11-07T02:07:37.782Z,7.80
2018-11-07T02:10:07.756Z,7.71
2018-11-07T02:12:36.610Z,7.61
2018-11-07T02:15:05.900Z,7.53
2018-11-07T02:17:34.694Z,7.47
2018-11-07T02:20:03.450Z,7.39
2018-11-07T02:22:32.255Z,7.31
2018-11-07T02:25:00.881Z,7.24
2018-11-07T02:27:30.341Z,7.22
2018-11-07T02:29:59.266Z,7.30
2018-11-07T02:32:28.188Z,7.22
2018-11-07T02:34:57.011Z,7.10
2018-11-07T02:37:26.110Z,7.13
2018-11-07T02:39:54.879Z,7.12
2018-11-07T02:42:23.822Z,7.23
2018-11-07T02:44:52.971Z,7.40
2018-11-07T02:47:21.748Z,7.28
2018-11-07T02:49:50.539Z,7.10
2018-11-07T02:52:19.348Z,7.16
2018-11-07T02:54:48.149Z,7.06
2018-11-07T02:57:17.235Z,7.00
2018-11-07T02:59:46.533Z,7.02
2018-11-07T03:02:15.616Z,7.03
2018-11-07T03:04:44.391Z,6.99
2018-11-07T03:07:13.205Z,6.99
2018-11-07T03:09:41.924Z,7.07
2018-11-07T03:12:10.769Z,7.36
2018-11-07T03:14:39.663Z,7.32
2018-11-07T03:17:08.499Z,7.26
2018-11-07T03:19:37.298Z,7.51
2018-11-07T03:22:06.390Z,7.62
2018-11-07T03:24:35.032Z,7.64
2018-11-07T03:27:03.922Z,7.61
2018-11-07T03:29:32.683Z,7.78
2018-11-07T03:32:01.437Z,7.79
2018-11-07T03:34:30.245Z,7.62
2018-11-07T03:36:59.276Z,7.55
2018-11-07T03:39:28.055Z,7.46
2018-11-07T03:41:57.047Z,7.17
2018-11-07T03:44:25.926Z,7.23
2018-11-07T03:46:54.743Z,7.42
2018-11-07T03:49:23.369Z,7.33
2018-11-07T03:51:52.255Z,7.48
2018-11-07T03:54:20.927Z,7.39
2018-11-07T03:56:49.713Z,7.15
2018-11-07T03:59:18.548Z,6.96
2018-11-07T04:01:47.363Z,6.77
2018-11-07T04:04:16.461Z,6.86
2018-11-07T04:06:45.337Z,6.85
2018-11-07T04:09:14.741Z,7.05
2018-11-07T04:11:44.216Z,6.83
2018-11-07T04:14:13.309Z,6.69
2018-11-07T04:16:42.031Z,6.65
2018-11-07T04:19:10.819Z,6.63
2018-11-07T04:21:39.976Z,6.64
2018-11-07T04:24:08.800Z,6.58
2018-11-07T04:26:38.774Z,6.59
2018-11-07T04:29:07.586Z,6.61
2018-11-07T04:31:36.387Z,6.48
2018-11-07T04:34:05.179Z,6.65
2018-11-07T04:36:33.975Z,6.58
2018-11-07T04:39:02.924Z,6.61
2018-11-07T04:41:31.666Z,6.59
2018-11-07T04:44:00.426Z,6.62
2018-11-07T04:46:29.437Z,6.56
2018-11-07T04:48:58.126Z,6.51
2018-11-07T04:51:26.898Z,6.45
2018-11-07T04:53:55.579Z,6.50
2018-11-07T04:56:24.296Z,6.45
2018-11-07T04:58:53.074Z,6.48
2018-11-07T05:04:18.029Z,6.55
2018-11-07T05:06:47.028Z,6.66
2018-11-07T05:09:16.252Z,6.53
2018-11-07T05:11:45.774Z,6.50
2018-11-07T05:14:15.271Z,6.59
2018-11-07T05:16:44.648Z,6.91
2018-11-07T05:19:14.696Z,6.66
2018-11-07T05:21:44.234Z,6.96
2018-11-07T05:24:13.461Z,7.23
2018-11-07T05:26:42.971Z,7.32
2018-11-07T05:29:12.247Z,7.28
2018-11-07T05:31:42.194Z,7.39
2018-11-07T05:34:12.392Z,7.11
2018-11-07T05:36:42.933Z,7.30
2018-11-07T05:39:12.392Z,7.17
2018-11-07T05:41:42.012Z,7.36
2018-11-07T05:44:11.435Z,6.73
2018-11-07T05:46:45.021Z,6.48
2018-11-07T05:49:15.519Z,6.44
2018-11-07T05:51:44.907Z,6.48
2018-11-07T05:54:14.511Z,6.49
2018-11-07T05:56:44.586Z,6.28
2018-11-07T05:59:13.996Z,6.40
2018-11-07T06:01:43.327Z,6.33
2018-11-07T06:04:12.576Z,6.84
2018-11-07T06:06:41.695Z,6.77
2018-11-07T06:09:10.783Z,7.01
2018-11-07T06:11:40.020Z,6.79
2018-11-07T06:14:09.430Z,6.95
2018-11-07T06:16:38.635Z,6.81
2018-11-07T06:19:07.974Z,6.44
2018-11-07T06:21:37.295Z,6.51
2018-11-07T06:24:06.667Z,6.59
2018-11-07T06:26:35.799Z,6.77
2018-11-07T06:29:05.124Z,6.71
2018-11-07T06:31:34.511Z,6.60
2018-11-07T06:34:03.724Z,6.77
2018-11-07T06:36:33.235Z,6.80
2018-11-07T06:39:02.527Z,6.76
2018-11-07T06:41:31.924Z,6.87
2018-11-07T06:44:01.091Z,7.11
2018-11-07T06:46:30.327Z,7.01
2018-11-07T06:48:59.395Z,7.00
2018-11-07T06:51:28.831Z,6.99
2018-11-07T06:53:58.252Z,6.79
2018-11-07T06:56:27.411Z,7.41
2018-11-07T06:58:56.621Z,7.74
2018-11-07T07:01:25.930Z,7.17
2018-11-07T07:03:55.086Z,7.76
2018-11-07T07:06:24.299Z,7.17
2018-11-07T07:08:53.716Z,7.40
2018-11-07T07:11:23.153Z,7.41
2018-11-07T07:13:52.682Z,8.03
2018-11-07T07:16:21.958Z,8.12
2018-11-07T07:18:51.093Z,8.05
2018-11-07T07:21:20.310Z,8.25
2018-11-07T07:23:49.593Z,8.04
2018-11-07T07:26:18.799Z,8.02
2018-11-07T07:28:47.895Z,8.48
2018-11-07T07:31:17.303Z,8.57
2018-11-07T07:33:46.661Z,8.64
2018-11-07T07:36:15.967Z,8.72
2018-11-07T07:38:45.268Z,8.80
2018-11-07T07:41:14.309Z,8.88
2018-11-07T07:43:43.485Z,8.98
2018-11-07T07:46:12.707Z,9.06
2018-11-07T07:48:41.851Z,9.09
2018-11-07T07:51:11.088Z,9.18
2018-11-07T07:53:40.130Z,9.21
2018-11-07T07:56:09.384Z,9.27
2018-11-07T07:58:38.470Z,9.37
2018-11-07T08:01:07.705Z,9.38
2018-11-07T08:03:40.488Z,9.52
2018-11-07T08:06:09.770Z,9.61
2018-11-07T08:08:39.062Z,9.63
2018-11-07T08:11:08.317Z,9.75
2018-11-07T08:13:37.624Z,9.82
2018-11-07T08:16:06.959Z,9.95
2018-11-07T08:18:36.020Z,10.02
2018-11-07T08:21:05.229Z,10.12
2018-11-07T08:23:34.236Z,10.20
2018-11-07T08:26:03.475Z,10.26
2018-11-07T08:28:32.594Z,10.32
2018-11-07T08:31:01.959Z,10.27
2018-11-07T08:33:31.220Z,10.36
2018-11-07T08:36:00.452Z,10.44
2018-11-07T08:38:29.895Z,10.58
2018-11-07T08:40:59.159Z,10.81
2018-11-07T08:43:28.302Z,10.73
2018-11-07T08:45:57.556Z,10.87
2018-11-07T08:48:26.736Z,10.92
2018-11-07T08:50:56.225Z,10.98
2018-11-07T08:53:25.335Z,11.13
2018-11-07T08:55:54.468Z,11.27
2018-11-07T08:58:24.746Z,11.45
2018-11-07T09:00:53.964Z,11.42
2018-11-07T09:03:23.154Z,11.59
2018-11-07T09:05:52.624Z,11.71
2018-11-07T09:08:22.051Z,11.82
2018-11-07T09:10:51.279Z,11.86
2018-11-07T09:13:20.244Z,11.86
2018-11-07T09:15:49.545Z,11.91
2018-11-07T09:18:18.830Z,11.98
2018-11-07T09:20:48.054Z,12.19
2018-11-07T09:23:17.052Z,12.17
2018-11-07T09:25:46.247Z,12.41
2018-11-07T09:28:15.220Z,12.49
2018-11-07T09:30:44.528Z,12.68
2018-11-07T09:33:13.819Z,12.66
2018-11-07T09:35:43.056Z,12.73
2018-11-07T09:38:12.121Z,13.14
2018-11-07T09:40:41.318Z,13.22
2018-11-07T09:43:10.515Z,13.13
2018-11-07T09:45:39.930Z,13.16
2018-11-07T09:48:09.249Z,13.21
2018-11-07T09:50:38.301Z,13.38
2018-11-07T09:53:07.586Z,13.20
2018-11-07T09:55:36.907Z,13.25
2018-11-07T09:58:06.302Z,13.32
2018-11-07T10:00:35.430Z,13.16
2018-11-07T10:03:04.902Z,13.23
2018-11-07T10:05:34.144Z,13.44
2018-11-07T10:08:03.163Z,13.69
2018-11-07T10:10:32.434Z,13.52
2018-11-07T10:13:01.581Z,13.69
2018-11-07T10:15:30.831Z,13.54
2018-11-07T10:17:59.746Z,13.54
2018-11-07T10:20:29.039Z,13.76
2018-11-07T10:22:58.226Z,13.98
2018-11-07T10:25:27.498Z,13.97
2018-11-07T10:27:56.960Z,13.93
2018-11-07T10:30:26.003Z,14.14
2018-11-07T10:32:55.269Z,14.15
2018-11-07T10:35:24.595Z,14.16
2018-11-07T10:37:54.094Z,14.20
2018-11-07T10:40:24.489Z,14.50
2018-11-07T10:42:53.668Z,14.51
2018-11-07T10:45:22.968Z,14.44
2018-11-07T10:47:52.353Z,14.58
2018-11-07T10:50:22.003Z,14.54
2018-11-07T10:52:51.624Z,14.43
2018-11-07T10:55:20.798Z,14.50
2018-11-07T10:57:50.132Z,14.55
2018-11-07T11:00:24.654Z,14.61
2018-11-07T11:03:31.488Z,14.71
2018-11-07T11:06:00.858Z,14.96
2018-11-07T11:08:30.011Z,15.00
2018-11-07T11:10:59.754Z,15.28
2018-11-07T11:13:29.031Z,15.37
2018-11-07T11:15:58.388Z,15.36
2018-11-07T11:18:27.746Z,15.19
2018-11-07T11:20:57.103Z,15.36
2018-11-07T11:23:26.235Z,15.27
2018-11-07T11:25:55.494Z,15.38
2018-11-07T11:28:24.658Z,15.41
2018-11-07T11:30:54.049Z,15.54
2018-11-07T11:33:23.160Z,15.64
2018-11-07T11:35:52.352Z,16.10
2018-11-07T11:38:21.805Z,16.56
2018-11-07T11:40:51.198Z,17.20
2018-11-07T11:43:20.590Z,19.41
2018-11-07T11:45:49.851Z,21.08
2018-11-07T11:48:19.020Z,22.02
2018-11-07T11:50:48.256Z,20.68
2018-11-07T11:53:17.318Z,18.59
2018-11-07T11:55:46.359Z,18.98
2018-11-07T11:58:15.500Z,19.38
2018-11-07T12:00:44.956Z,19.12
2018-11-07T12:03:14.248Z,18.21
2018-11-07T12:05:43.324Z,17.40
2018-11-07T12:08:12.610Z,17.36
2018-11-07T12:10:41.964Z,17.16
2018-11-07T12:13:11.434Z,16.98
2018-11-07T12:15:40.753Z,16.79
2018-11-07T12:18:10.023Z,16.81
2018-11-07T12:20:39.248Z,16.98
2018-11-07T12:23:08.651Z,16.44
2018-11-07T12:25:37.928Z,16.30
2018-11-07T12:28:06.987Z,17.23
2018-11-07T12:30:36.134Z,16.93
2018-11-07T12:33:05.292Z,16.40
2018-11-07T12:35:34.636Z,16.14
2018-11-07T12:38:03.801Z,15.98
2018-11-07T12:40:33.015Z,15.97
2018-11-07T12:43:02.068Z,15.84
2018-11-07T12:45:31.319Z,15.76
2018-11-07T12:48:00.591Z,15.80
2018-11-07T12:50:30.005Z,15.92
2018-11-07T12:52:59.098Z,15.89
2018-11-07T12:55:28.308Z,16.18
2018-11-07T12:57:57.583Z,16.17
2018-11-07T13:00:27.567Z,16.28
2018-11-07T13:02:56.828Z,16.21
2018-11-07T13:05:26.902Z,16.07
2018-11-07T13:07:57.246Z,15.89
2018-11-07T13:10:26.487Z,15.92
2018-11-07T13:12:55.669Z,15.74
2018-11-07T13:15:24.875Z,15.75
2018-11-07T13:17:54.444Z,16.17
2018-11-07T13:20:25.480Z,16.60
2018-11-07T13:22:55.170Z,17.04
2018-11-07T13:25:25.311Z,16.65
2018-11-07T13:27:54.435Z,16.66
2018-11-07T13:30:23.896Z,16.15
2018-11-07T13:32:53.025Z,15.83
2018-11-07T13:35:22.295Z,15.78
2018-11-07T13:37:52.329Z,15.64
2018-11-07T13:40:25.381Z,15.69
2018-11-07T13:42:54.634Z,15.59
2018-11-07T13:45:24.221Z,15.56
2018-11-07T13:47:54.422Z,15.53
2018-11-07T13:50:23.672Z,15.39
2018-11-07T13:52:52.912Z,15.44
2018-11-07T13:55:22.072Z,15.34
2018-11-07T13:57:51.349Z,15.45
2018-11-07T14:00:22.721Z,15.41
2018-11-07T14:02:52.560Z,15.38
2018-11-07T14:05:21.895Z,15.37
2018-11-07T14:07:51.101Z,15.32
2018-11-07T14:10:23.346Z,15.16
2018-11-07T14:12:52.923Z,15.10
2018-11-07T14:15:22.309Z,15.18
2018-11-07T14:17:51.768Z,15.24
2018-11-07T14:20:20.925Z,15.14
2018-11-07T14:22:50.092Z,15.21
2018-11-07T14:25:19.535Z,15.18
2018-11-07T14:27:48.732Z,15.16
2018-11-07T14:30:19.100Z,15.17
2018-11-07T14:32:56.148Z,15.05
2018-11-07T14:35:25.527Z,15.07
2018-11-07T14:37:55.477Z,15.03
2018-11-07T14:40:24.662Z,14.97
2018-11-07T14:42:53.982Z,14.90
2018-11-07T14:45:23.108Z,14.86
2018-11-07T14:47:52.503Z,14.86
2018-11-07T14:50:21.762Z,14.77
2018-11-07T14:52:50.767Z,14.72
2018-11-07T14:55:20.423Z,14.62
2018-11-07T14:57:49.597Z,14.58
2018-11-07T15:00:19.033Z,14.53
2018-11-07T15:02:48.333Z,14.41
2018-11-07T15:05:18.326Z,14.37
2018-11-07T15:07:47.885Z,14.25
2018-11-07T15:10:17.782Z,13.71
2018-11-07T15:12:47.116Z,13.56
2018-11-07T15:15:17.649Z,13.54
2018-11-07T15:17:46.874Z,13.37
2018-11-07T15:20:16.832Z,13.13
2018-11-07T15:22:45.979Z,12.94
2018-11-07T15:25:16.212Z,12.91
2018-11-07T15:27:46.531Z,12.82
2018-11-07T15:30:16.423Z,12.70
2018-11-07T15:32:46.063Z,12.66
2018-11-07T15:35:15.291Z,12.52
2018-11-07T15:37:44.547Z,12.42
2018-11-07T15:40:14.913Z,12.40
2018-11-07T15:42:44.575Z,12.36
2018-11-07T15:45:15.271Z,12.32
2018-11-07T15:47:44.968Z,12.22
2018-11-07T15:50:19.423Z,12.01
2018-11-07T15:52:49.117Z,11.76
2018-11-07T15:55:18.791Z,11.79
2018-11-07T15:57:47.869Z,11.60
2018-11-07T16:00:18.025Z,11.49
2018-11-07T16:02:47.201Z,11.33
2018-11-07T16:05:17.075Z,11.17
2018-11-07T16:07:46.481Z,11.09
2018-11-07T16:10:16.286Z,11.04
2018-11-07T16:12:45.473Z,11.16
2018-11-07T16:15:16.101Z,11.16
2018-11-07T16:17:45.504Z,11.12
2018-11-07T16:20:17.269Z,10.77
2018-11-07T16:22:47.295Z,10.71
2018-11-07T16:25:16.465Z,10.75
2018-11-07T16:27:45.819Z,10.56
2018-11-07T16:30:16.213Z,10.54
2018-11-07T16:32:45.508Z,10.45
2018-11-07T16:35:14.968Z,10.28
2018-11-07T16:37:44.467Z,10.11
2018-11-07T16:40:15.895Z,10.06
2018-11-07T16:42:45.487Z,10.02
2018-11-07T16:45:15.559Z,9.88
2018-11-07T16:47:44.925Z,9.84
2018-11-07T16:50:15.220Z,9.77
2018-11-07T16:52:45.424Z,9.75
2018-11-07T16:55:14.639Z,9.63
2018-11-07T16:57:43.963Z,9.68
2018-11-07T17:00:18.345Z,9.51
2018-11-07T17:02:48.041Z,9.46
2018-11-07T17:05:17.601Z,9.46
2018-11-07T17:07:47.135Z,9.43
2018-11-07T17:10:16.519Z,9.33
2018-11-07T17:12:45.616Z,9.32
2018-11-07T17:15:14.819Z,9.35
2018-11-07T17:17:43.987Z,9.44
2018-11-07T17:20:14.371Z,9.23
2018-11-07T17:22:43.915Z,9.18
2018-11-07T17:25:15.260Z,9.13
2018-11-07T17:27:44.614Z,9.14
2018-11-07T17:30:14.917Z,9.16
2018-11-07T17:32:44.219Z,9.18
2018-11-07T17:35:14.481Z,9.02
2018-11-07T17:37:44.152Z,9.17
2018-11-07T17:40:15.265Z,9.07
2018-11-07T17:42:44.581Z,8.92
2018-11-07T17:45:15.419Z,8.84
2018-11-07T17:47:44.838Z,8.84
2018-11-07T17:50:15.370Z,8.76
2018-11-07T17:52:44.792Z,8.65
2018-11-07T17:55:15.106Z,8.60
2018-11-07T17:57:44.357Z,8.62
2018-11-07T18:00:15.298Z,8.71
2018-11-07T18:02:44.545Z,8.53
2018-11-07T18:05:14.500Z,8.43
2018-11-07T18:07:43.797Z,8.54
2018-11-07T18:10:15.558Z,8.59
2018-11-07T18:12:45.175Z,8.54
2018-11-07T18:15:14.228Z,8.58
2018-11-07T18:17:43.451Z,8.37
2018-11-07T18:20:13.693Z,8.35
2018-11-07T18:22:42.896Z,8.21
2018-11-07T18:25:13.200Z,8.18
2018-11-07T18:27:42.620Z,8.18
2018-11-07T18:30:13.244Z,8.11
2018-11-07T18:32:43.088Z,8.03
2018-11-07T18:35:13.650Z,8.08
2018-11-07T18:37:42.904Z,8.02
2018-11-07T18:40:13.456Z,8.03
2018-11-07T18:42:42.826Z,8.04
2018-11-07T18:45:12.815Z,7.98
2018-11-07T18:47:43.020Z,7.93
2018-11-07T18:50:13.672Z,7.83
2018-11-07T18:52:43.218Z,7.83
2018-11-07T18:55:13.441Z,7.82
2018-11-07T18:57:43.406Z,7.70
2018-11-07T19:00:14.400Z,7.68
2018-11-07T19:02:44.748Z,7.71
2018-11-07T19:05:22.747Z,7.70
2018-11-07T19:07:51.982Z,7.36
2018-11-07T19:10:22.080Z,7.54
2018-11-07T19:12:51.879Z,7.56
2018-11-07T19:15:21.083Z,7.54
2018-11-07T19:17:51.046Z,7.51
2018-11-07T19:20:20.713Z,7.48
2018-11-07T19:22:49.854Z,7.48
2018-11-07T19:25:20.472Z,7.45
2018-11-07T19:27:49.701Z,7.43
2018-11-07T19:30:20.883Z,7.48
2018-11-07T19:32:51.012Z,7.47
2018-11-07T19:35:20.579Z,7.46
2018-11-07T19:37:50.107Z,7.36
2018-11-07T19:40:20.976Z,7.32
2018-11-07T19:42:50.103Z,7.27
2018-11-07T19:45:20.288Z,7.18
2018-11-07T19:47:49.874Z,7.16
2018-11-07T19:50:20.262Z,7.11
2018-11-07T19:52:50.085Z,7.13
2018-11-07T19:55:20.646Z,7.11
2018-11-07T19:57:51.490Z,6.96
2018-11-07T20:00:20.618Z,7.07
2018-11-07T20:02:49.914Z,7.02
2018-11-07T20:07:58.272Z,6.97
2018-11-07T20:10:34.183Z,7.01
2018-11-07T20:13:03.424Z,6.92
2018-11-07T20:15:32.633Z,6.95
2018-11-07T20:18:02.089Z,6.92
2018-11-07T20:20:31.332Z,6.95
2018-11-07T20:23:00.529Z,6.93
2018-11-07T20:25:29.784Z,6.87
2018-11-07T20:27:58.987Z,6.85
2018-11-07T20:30:28.202Z,6.76
2018-11-07T20:32:57.400Z,6.74
2018-11-07T20:35:26.650Z,6.77
2018-11-07T20:37:55.763Z,6.68
2018-11-07T20:40:25.008Z,6.63
2018-11-07T20:42:54.059Z,6.74
2018-11-07T20:45:23.302Z,6.66
2018-11-07T20:47:52.451Z,6.63
2018-11-07T20:50:22.171Z,6.55
2018-11-07T20:52:51.492Z,6.61
2018-11-07T20:55:20.599Z,6.59
2018-11-07T20:57:49.756Z,6.64
2018-11-07T21:00:20.615Z,6.71
2018-11-07T21:02:50.435Z,6.56
2018-11-07T21:05:19.674Z,6.33
2018-11-07T21:07:48.907Z,6.42
2018-11-07T21:10:20.228Z,6.42
2018-11-07T21:12:51.123Z,6.42
2018-11-07T21:15:21.493Z,6.37
2018-11-07T21:17:50.990Z,6.29
2018-11-07T21:20:20.894Z,6.37
2018-11-07T21:22:53.135Z,6.30
2018-11-07T21:25:25.222Z,6.27
2018-11-07T21:27:56.543Z,6.32
2018-11-07T21:30:25.651Z,6.32
2018-11-07T21:32:54.995Z,6.31
2018-11-07T21:35:25.348Z,6.30
2018-11-07T21:37:59.264Z,6.36
2018-11-07T21:40:29.511Z,6.27
2018-11-07T21:43:00.650Z,6.22
2018-11-07T21:45:30.692Z,6.16
2018-11-07T21:48:00.117Z,6.18
2018-11-07T21:50:29.578Z,6.26
2018-11-07T21:53:00.639Z,6.17
2018-11-07T21:55:30.573Z,6.06
2018-11-07T21:58:00.302Z,6.20
2018-11-07T22:00:29.576Z,6.09
2018-11-07T22:02:58.982Z,6.20
2018-11-07T22:05:28.785Z,6.22
2018-11-07T22:07:58.052Z,6.09
2018-11-07T22:10:27.824Z,6.08
2018-11-07T22:12:57.686Z,6.07
2018-11-07T22:15:27.231Z,6.01
2018-11-07T22:17:56.503Z,6.00
2018-11-07T22:20:26.112Z,5.96
2018-11-07T22:22:55.710Z,5.88
2018-11-07T22:25:24.958Z,5.82
2018-11-07T22:27:54.675Z,5.74
2018-11-07T22:30:23.743Z,5.88
2018-11-07T22:32:53.108Z,5.87
2018-11-07T22:35:22.724Z,5.94
2018-11-07T22:37:51.771Z,5.82
2018-11-07T22:40:21.046Z,5.84
2018-11-07T22:42:50.376Z,5.83
2018-11-07T22:45:19.675Z,5.80
2018-11-07T22:47:50.403Z,6.02
2018-11-07T22:50:20.146Z,5.96
2018-11-07T22:52:50.320Z,5.82
2018-11-07T22:55:19.891Z,5.77
2018-11-07T22:57:52.277Z,5.66
2018-11-07T23:00:26.969Z,5.69
2018-11-07T23:02:56.770Z,5.71
2018-11-07T23:05:26.244Z,5.71
2018-11-07T23:07:56.608Z,5.73
2018-11-07T23:10:25.968Z,5.75
2018-11-07T23:12:55.365Z,5.76
2018-11-07T23:15:30.408Z,5.75
2018-11-07T23:17:59.868Z,5.75
2018-11-07T23:20:29.289Z,5.58
2018-11-07T23:22:58.700Z,5.52
2018-11-07T23:25:28.091Z,5.64
2018-11-07T23:27:57.808Z,5.88
2018-11-07T23:30:26.994Z,5.99
2018-11-07T23:32:56.538Z,6.01
2018-11-07T23:35:26.788Z,5.89
2018-11-07T23:37:56.705Z,5.79
2018-11-07T23:40:26.554Z,5.80
2018-11-07T23:42:56.093Z,5.73
2018-11-07T23:45:25.240Z,5.71
2018-11-07T23:47:54.811Z,5.73
2018-11-07T23:50:24.456Z,5.73
2018-11-07T23:52:54.454Z,5.71
2018-11-07T23:55:24.947Z,5.73
2018-11-07T23:57:54.745Z,5.73
